createdAt,value
2022-12-05T00:01:21.607Z,68.30
2022-12-05T00:03:53.701Z,64.47
2022-12-05T00:06:28.615Z,59.20
2022-12-05T00:08:57.480Z,65.83
2022-12-05T00:11:34.609Z,69.93
2022-12-05T00:14:03.506Z,66.77
2022-12-05T00:16:40.759Z,65.23
2022-12-05T00:19:12.072Z,67.43
2022-12-05T00:21:47.597Z,66.30
2022-12-05T00:24:17.490Z,71.40
2022-12-05T00:26:51.633Z,63.23
2022-12-05T00:29:19.722Z,66.10
2022-12-05T00:31:54.663Z,66.40
2022-12-05T00:34:24.209Z,64.53
2022-12-05T00:36:58.652Z,66.03
2022-12-05T00:39:26.743Z,64.40
2022-12-05T00:42:01.646Z,65.93
2022-12-05T00:44:29.719Z,63.60
2022-12-05T00:47:04.639Z,63.30
2022-12-05T00:49:40.647Z,63.37
2022-12-05T00:52:08.728Z,64.07
2022-12-05T00:54:43.665Z,57.97
2022-12-05T00:57:11.761Z,59.53
2022-12-05T00:59:47.659Z,60.60
2022-12-05T01:02:22.597Z,57.93
2022-12-05T01:04:58.658Z,53.10
2022-12-05T01:07:26.812Z,60.67
2022-12-05T01:10:01.701Z,61.73
2022-12-05T01:12:29.778Z,60.67
2022-12-05T01:15:04.672Z,60.73
2022-12-05T01:17:32.767Z,57.77
2022-12-05T01:20:08.692Z,55.93
2022-12-05T01:22:36.752Z,55.63
2022-12-05T01:25:11.677Z,59.53
2022-12-05T01:27:40.021Z,55.77
2022-12-05T01:30:15.700Z,51.17
2022-12-05T01:32:44.072Z,57.27
2022-12-05T01:35:20.703Z,50.57
2022-12-05T01:37:49.049Z,53.90
2022-12-05T01:40:24.693Z,53.13
2022-12-05T01:42:53.019Z,57.60
2022-12-05T01:45:35.734Z,55.37
2022-12-05T01:48:06.684Z,48.87
2022-12-05T01:50:43.698Z,52.40
2022-12-05T01:53:12.049Z,55.93
2022-12-05T01:55:46.720Z,52.77
2022-12-05T01:58:14.923Z,47.40
2022-12-05T02:00:56.792Z,53.80
2022-12-05T02:03:31.942Z,55.07
2022-12-05T02:06:08.706Z,57.77
2022-12-05T02:08:37.473Z,53.70
2022-12-05T02:11:14.698Z,56.40
2022-12-05T02:13:54.003Z,50.60
2022-12-05T02:16:35.741Z,53.30
2022-12-05T02:19:22.162Z,54.93
2022-12-05T02:22:35.739Z,49.67
2022-12-05T02:25:20.466Z,55.07
2022-12-05T02:28:18.742Z,53.90
2022-12-05T02:30:50.984Z,52.47
2022-12-05T02:33:30.736Z,54.77
2022-12-05T02:36:04.465Z,57.37
2022-12-05T02:38:46.716Z,63.87
2022-12-05T02:41:21.108Z,54.13
2022-12-05T02:44:01.757Z,52.47
2022-12-05T02:46:34.086Z,61.40
2022-12-05T02:49:10.745Z,58.33
2022-12-05T02:51:43.342Z,54.27
2022-12-05T02:54:23.948Z,60.43
2022-12-05T02:56:53.495Z,68.10
2022-12-05T02:59:27.772Z,72.50
2022-12-05T03:02:04.080Z,72.00
2022-12-05T03:04:45.781Z,67.47
2022-12-05T03:07:15.293Z,66.67
2022-12-05T03:09:54.935Z,71.27
2022-12-05T03:12:27.095Z,71.33
2022-12-05T03:15:07.760Z,69.63
2022-12-05T03:17:43.019Z,64.93
2022-12-05T03:20:26.791Z,73.90
2022-12-05T03:23:00.043Z,69.63
2022-12-05T03:25:42.795Z,68.37
2022-12-05T03:28:20.067Z,66.37
2022-12-05T03:30:55.851Z,71.53
2022-12-05T03:33:29.788Z,73.50
2022-12-05T03:36:09.771Z,72.50
2022-12-05T03:38:45.737Z,77.37
2022-12-05T03:41:27.781Z,79.60
2022-12-05T03:43:59.246Z,78.50
2022-12-05T03:46:38.939Z,75.90
2022-12-05T03:49:14.479Z,85.50
2022-12-05T03:51:54.818Z,84.93
2022-12-05T03:54:27.369Z,90.40
2022-12-05T03:57:06.792Z,79.77
2022-12-05T03:59:39.411Z,74.60
2022-12-05T04:02:27.791Z,95.53
2022-12-05T04:05:10.913Z,87.43
2022-12-05T04:07:49.898Z,80.43
2022-12-05T04:10:23.135Z,85.00
2022-12-05T04:13:00.835Z,84.00
2022-12-05T04:15:52.320Z,86.20
2022-12-05T04:18:29.825Z,89.40
2022-12-05T04:21:18.022Z,79.77
2022-12-05T04:24:12.830Z,78.20
2022-12-05T04:26:46.219Z,76.77
2022-12-05T04:29:31.826Z,60.83
2022-12-05T04:32:05.886Z,89.47
2022-12-05T04:34:42.825Z,79.57
2022-12-05T04:37:16.441Z,76.93
2022-12-05T04:39:57.047Z,77.17
2022-12-05T04:42:27.814Z,81.97
2022-12-05T04:45:06.866Z,79.90
2022-12-05T04:47:40.428Z,74.00
2022-12-05T04:50:17.859Z,77.30
2022-12-05T04:52:51.382Z,70.17
2022-12-05T04:55:31.864Z,67.90
2022-12-05T04:58:07.330Z,67.30
2022-12-05T05:00:48.851Z,68.87
2022-12-05T05:03:29.059Z,61.97
2022-12-05T05:06:04.842Z,68.97
2022-12-05T05:08:34.260Z,63.53
2022-12-05T05:11:17.858Z,67.57
2022-12-05T05:13:46.012Z,63.40
2022-12-05T05:16:25.930Z,69.07
2022-12-05T05:18:54.278Z,69.60
2022-12-05T05:21:31.870Z,64.33
2022-12-05T05:24:01.536Z,60.40
2022-12-05T05:26:37.876Z,67.87
2022-12-05T05:29:06.300Z,68.87
2022-12-05T05:31:40.965Z,57.33
2022-12-05T05:34:10.227Z,57.30
2022-12-05T05:36:45.878Z,58.27
2022-12-05T05:39:16.715Z,59.50
2022-12-05T05:41:51.906Z,57.90
2022-12-05T05:44:19.983Z,60.43
2022-12-05T05:46:54.965Z,57.23
2022-12-05T05:49:23.104Z,53.40
2022-12-05T05:51:57.899Z,60.47
2022-12-05T05:54:27.344Z,61.20
2022-12-05T05:57:01.902Z,62.60
2022-12-05T05:59:30.025Z,73.87
2022-12-05T06:02:04.911Z,67.70
2022-12-05T06:04:39.808Z,69.57
2022-12-05T06:07:14.881Z,64.90
2022-12-05T06:09:44.314Z,78.63
2022-12-05T06:12:18.896Z,66.37
2022-12-05T06:14:49.279Z,60.80
2022-12-05T06:17:23.910Z,64.10
2022-12-05T06:19:51.995Z,78.30
2022-12-05T06:22:26.941Z,63.00
2022-12-05T06:24:56.328Z,69.70
2022-12-05T06:27:30.945Z,68.97
2022-12-05T06:29:59.253Z,66.33
2022-12-05T06:32:35.919Z,74.50
2022-12-05T06:35:10.952Z,66.47
2022-12-05T06:37:45.930Z,68.47
2022-12-05T06:40:15.806Z,70.73
2022-12-05T06:42:49.948Z,65.13
2022-12-05T06:45:18.215Z,66.80
2022-12-05T06:47:52.963Z,69.63
2022-12-05T06:50:21.368Z,58.87
2022-12-05T06:52:55.943Z,68.60
2022-12-05T06:55:25.380Z,60.23
2022-12-05T06:57:59.937Z,60.97
2022-12-05T07:00:52.177Z,70.37
2022-12-05T07:03:27.177Z,60.30
2022-12-05T07:06:01.961Z,61.67
2022-12-05T07:08:30.019Z,50.70
2022-12-05T07:11:05.975Z,52.47
2022-12-05T07:13:34.156Z,54.47
2022-12-05T07:16:09.050Z,58.33
2022-12-05T07:18:37.688Z,53.07
2022-12-05T07:21:15.231Z,56.47
2022-12-05T07:23:46.300Z,49.53
2022-12-05T07:26:26.152Z,54.70
2022-12-05T07:28:57.966Z,47.17
2022-12-05T07:31:33.038Z,48.93
2022-12-05T07:34:01.369Z,57.00
2022-12-05T07:36:35.996Z,49.00
2022-12-05T07:39:04.831Z,53.83
2022-12-05T07:41:42.000Z,56.77
2022-12-05T07:44:12.832Z,50.60
2022-12-05T07:46:48.003Z,48.23
2022-12-05T07:49:16.242Z,50.37
2022-12-05T07:51:50.988Z,53.43
2022-12-05T07:54:19.030Z,50.23
2022-12-05T07:56:54.991Z,46.33
2022-12-05T07:59:23.176Z,47.33
2022-12-05T08:02:04.023Z,47.43
2022-12-05T08:04:32.242Z,43.80
2022-12-05T08:07:07.025Z,46.37
2022-12-05T08:09:35.055Z,45.60
2022-12-05T08:12:11.034Z,42.40
2022-12-05T08:14:39.339Z,45.87
2022-12-05T08:17:14.087Z,46.73
2022-12-05T08:19:42.198Z,47.60
2022-12-05T08:22:17.046Z,43.03
2022-12-05T08:24:45.273Z,38.67
2022-12-05T08:27:21.061Z,44.40
2022-12-05T08:29:49.290Z,39.50
2022-12-05T08:32:24.052Z,36.90
2022-12-05T08:34:52.219Z,38.37
2022-12-05T08:37:27.037Z,41.57
2022-12-05T08:39:55.255Z,40.60
2022-12-05T08:42:31.032Z,39.90
2022-12-05T08:44:59.403Z,35.50
2022-12-05T08:47:35.093Z,39.33
2022-12-05T08:50:03.608Z,36.63
2022-12-05T08:52:38.055Z,38.03
2022-12-05T08:55:06.788Z,40.57
2022-12-05T08:57:43.068Z,38.47
2022-12-05T09:00:12.053Z,37.50
2022-12-05T09:02:53.097Z,34.83
2022-12-05T09:05:28.300Z,36.90
2022-12-05T09:08:06.112Z,41.07
2022-12-05T09:10:34.222Z,33.30
2022-12-05T09:13:10.096Z,34.07
2022-12-05T09:15:39.788Z,37.43
2022-12-05T09:18:14.064Z,34.17
2022-12-05T09:20:42.361Z,34.17
2022-12-05T09:23:17.226Z,34.17
2022-12-05T09:25:45.288Z,40.67
2022-12-05T09:28:21.067Z,33.83
2022-12-05T09:30:58.054Z,32.07
2022-12-05T09:33:33.263Z,35.20
2022-12-05T09:36:04.075Z,32.43
2022-12-05T09:38:39.088Z,30.17
2022-12-05T09:41:13.965Z,29.57
2022-12-05T09:43:57.094Z,32.07
2022-12-05T09:46:36.913Z,32.50
2022-12-05T09:49:13.107Z,29.47
2022-12-05T09:51:48.566Z,31.83
2022-12-05T09:54:26.102Z,34.63
2022-12-05T09:56:54.322Z,30.40
2022-12-05T09:59:30.085Z,29.80
2022-12-05T10:02:36.131Z,26.90
2022-12-05T10:05:15.169Z,24.93
2022-12-05T10:07:50.524Z,25.53
2022-12-05T10:10:35.213Z,22.00
2022-12-05T10:13:23.771Z,24.53
2022-12-05T10:16:03.237Z,24.77
2022-12-05T10:18:38.541Z,22.20
2022-12-05T10:21:22.119Z,23.00
2022-12-05T10:23:57.874Z,25.00
2022-12-05T10:26:36.114Z,22.13
2022-12-05T10:29:12.566Z,20.97
2022-12-05T10:31:51.145Z,22.10
2022-12-05T10:34:29.506Z,18.90
2022-12-05T10:37:09.157Z,21.67
2022-12-05T10:39:37.688Z,25.23
2022-12-05T10:42:08.647Z,20.60
2022-12-05T10:44:44.177Z,21.17
2022-12-05T10:47:14.026Z,18.50
2022-12-05T10:49:49.158Z,21.77
2022-12-05T10:52:17.760Z,17.23
2022-12-05T10:54:57.367Z,18.33
2022-12-05T10:57:27.416Z,18.60
2022-12-05T11:00:03.142Z,21.00
2022-12-05T11:02:53.166Z,21.30
2022-12-05T11:05:30.269Z,17.33
2022-12-05T11:08:06.274Z,17.43
2022-12-05T11:10:37.881Z,20.23
2022-12-05T11:13:24.148Z,18.57
2022-12-05T11:15:55.489Z,15.63
2022-12-05T11:18:39.161Z,18.17
2022-12-05T11:21:12.516Z,17.90
2022-12-05T11:23:47.165Z,17.00
2022-12-05T11:26:21.253Z,14.33
2022-12-05T11:28:56.197Z,13.87
2022-12-05T11:31:29.401Z,13.10
2022-12-05T11:34:17.197Z,14.87
2022-12-05T11:36:49.588Z,16.07
2022-12-05T11:39:24.352Z,17.30
2022-12-05T11:42:12.393Z,14.60
2022-12-05T11:45:02.371Z,16.27
2022-12-05T11:47:43.276Z,16.67
2022-12-05T11:50:33.211Z,16.00
2022-12-05T11:53:15.130Z,16.03
2022-12-05T11:55:58.239Z,16.33
2022-12-05T11:58:47.899Z,17.07
2022-12-05T12:01:34.272Z,15.97
2022-12-05T12:04:35.325Z,17.37
2022-12-05T12:07:32.251Z,16.87
2022-12-05T12:10:11.889Z,17.07
2022-12-05T12:12:56.245Z,16.67
2022-12-05T12:15:48.869Z,16.30
2022-12-05T12:18:32.257Z,15.87
2022-12-05T12:21:17.161Z,16.73
2022-12-05T12:24:06.215Z,16.77
2022-12-05T12:26:47.282Z,15.77
2022-12-05T12:29:34.250Z,18.10
2022-12-05T12:32:17.825Z,18.20
2022-12-05T12:35:13.257Z,19.53
2022-12-05T12:37:48.894Z,14.07
2022-12-05T12:40:30.339Z,16.17
2022-12-05T12:43:06.725Z,16.97
2022-12-05T12:46:09.627Z,13.57
2022-12-05T12:48:59.239Z,14.83
2022-12-05T12:51:30.315Z,12.10
2022-12-05T12:54:47.336Z,15.10
2022-12-05T12:57:33.251Z,13.87
2022-12-05T13:00:12.360Z,11.67
2022-12-05T13:03:00.236Z,12.50
2022-12-05T13:05:46.302Z,12.80
2022-12-05T13:08:20.722Z,11.63
2022-12-05T13:10:56.236Z,11.43
2022-12-05T13:13:31.575Z,11.63
2022-12-05T13:16:08.314Z,11.17
2022-12-05T13:18:36.722Z,9.63
2022-12-05T13:21:15.270Z,11.33
2022-12-05T13:23:48.525Z,9.67
2022-12-05T13:26:24.288Z,10.77
2022-12-05T13:28:57.032Z,11.33
2022-12-05T13:31:44.360Z,11.47
2022-12-05T13:34:52.283Z,11.83
2022-12-05T13:37:41.903Z,9.13
2022-12-05T13:40:52.266Z,10.57
2022-12-05T13:43:22.787Z,11.60
2022-12-05T13:46:13.479Z,11.10
2022-12-05T13:48:44.194Z,10.73
2022-12-05T13:51:29.284Z,9.80
2022-12-05T13:54:01.863Z,9.37
2022-12-05T13:56:55.318Z,9.73
2022-12-05T14:00:01.794Z,10.20
2022-12-05T14:03:11.344Z,10.50
2022-12-05T14:05:49.294Z,9.73
2022-12-05T14:09:03.332Z,9.97
2022-12-05T14:11:31.709Z,10.93
2022-12-05T14:14:06.337Z,10.37
2022-12-05T14:16:46.249Z,12.20
2022-12-05T14:20:05.323Z,11.40
2022-12-05T14:22:45.194Z,10.63
2022-12-05T14:25:34.342Z,12.23
2022-12-05T14:28:11.836Z,10.43
2022-12-05T14:30:58.451Z,13.70
2022-12-05T14:33:26.983Z,13.07
2022-12-05T14:36:03.351Z,12.37
2022-12-05T14:38:33.113Z,17.50
2022-12-05T14:41:21.342Z,14.17
2022-12-05T14:43:54.786Z,13.00
2022-12-05T14:46:33.386Z,13.80
2022-12-05T14:49:41.675Z,12.37
2022-12-05T14:52:27.353Z,13.13
2022-12-05T14:55:01.272Z,13.87
2022-12-05T14:57:36.357Z,12.87
2022-12-05T15:00:07.882Z,13.17
2022-12-05T15:02:48.359Z,13.50
2022-12-05T15:05:23.451Z,13.37
2022-12-05T15:08:01.403Z,13.40
2022-12-05T15:10:33.264Z,12.60
2022-12-05T15:13:11.371Z,13.73
2022-12-05T15:15:45.248Z,14.73
2022-12-05T15:18:29.367Z,13.60
2022-12-05T15:21:01.495Z,13.73
2022-12-05T15:23:52.371Z,14.20
2022-12-05T15:29:22.391Z,14.80
2022-12-05T15:31:52.616Z,17.33
2022-12-05T15:34:31.415Z,17.03
2022-12-05T15:37:03.895Z,17.50
2022-12-05T15:39:59.381Z,16.80
2022-12-05T15:42:30.772Z,15.70
2022-12-05T15:45:30.379Z,15.90
2022-12-05T15:48:12.716Z,17.00
2022-12-05T15:50:49.399Z,16.93
2022-12-05T15:53:24.238Z,15.93
2022-12-05T15:56:03.443Z,16.70
2022-12-05T15:58:35.811Z,16.10
2022-12-05T16:01:16.465Z,15.43
2022-12-05T16:03:56.589Z,17.47
2022-12-05T16:06:42.396Z,16.30
2022-12-05T16:09:16.629Z,15.90
2022-12-05T16:12:00.430Z,17.60
2022-12-05T16:14:59.010Z,15.63
2022-12-05T16:17:29.429Z,18.03
2022-12-05T16:20:18.645Z,16.37
2022-12-05T16:22:49.321Z,16.63
2022-12-05T16:25:26.453Z,18.03
2022-12-05T16:28:01.223Z,16.63
2022-12-05T16:30:37.434Z,19.37
2022-12-05T16:33:08.857Z,20.07
2022-12-05T16:35:46.443Z,19.27
2022-12-05T16:38:19.480Z,18.33
2022-12-05T16:41:03.459Z,19.83
2022-12-05T16:43:46.110Z,20.37
2022-12-05T16:46:50.574Z,19.53
2022-12-05T16:49:32.671Z,23.40
2022-12-05T16:52:09.460Z,27.20
2022-12-05T16:54:37.589Z,24.53
2022-12-05T16:57:06.008Z,21.90
2022-12-05T16:59:44.486Z,22.87
2022-12-05T17:02:21.729Z,24.17
2022-12-05T17:05:03.467Z,24.27
2022-12-05T17:07:38.522Z,24.27
2022-12-05T17:10:07.906Z,26.17
2022-12-05T17:12:47.581Z,24.37
2022-12-05T17:15:18.921Z,25.57
2022-12-05T17:17:54.461Z,36.73
2022-12-05T17:20:22.676Z,62.73
2022-12-05T17:22:57.483Z,82.93
2022-12-05T17:25:32.117Z,46.63
2022-12-05T17:28:06.466Z,26.70
2022-12-05T17:30:36.049Z,23.80
2022-12-05T17:33:10.496Z,30.17
2022-12-05T17:35:38.764Z,30.07
2022-12-05T17:38:13.492Z,134.07
2022-12-05T17:40:41.640Z,70.57
2022-12-05T17:43:24.520Z,48.57
2022-12-05T17:45:54.963Z,37.77
2022-12-05T17:48:29.489Z,34.17
2022-12-05T17:50:58.843Z,29.53
2022-12-05T17:53:33.498Z,40.00
2022-12-05T17:56:01.554Z,34.37
2022-12-05T17:58:36.533Z,31.23
2022-12-05T18:01:06.253Z,35.70
2022-12-05T18:03:47.488Z,34.77
2022-12-05T18:06:15.976Z,29.83
2022-12-05T18:08:51.513Z,36.17
2022-12-05T18:11:19.756Z,34.40
2022-12-05T18:13:54.543Z,40.90
2022-12-05T18:16:24.034Z,35.97
2022-12-05T18:18:58.541Z,32.60
2022-12-05T18:21:26.635Z,33.70
2022-12-05T18:24:01.524Z,37.83
2022-12-05T18:26:29.636Z,45.30
2022-12-05T18:29:05.513Z,32.67
2022-12-05T18:31:35.241Z,49.57
2022-12-05T18:34:09.537Z,39.63
2022-12-05T18:36:37.771Z,44.30
2022-12-05T18:39:12.530Z,45.30
2022-12-05T18:41:40.530Z,41.63
2022-12-05T18:44:16.554Z,50.67
2022-12-05T18:46:46.075Z,52.57
2022-12-05T18:49:21.532Z,40.40
2022-12-05T18:51:49.714Z,44.57
2022-12-05T18:54:24.543Z,65.67
2022-12-05T18:56:53.402Z,50.67
2022-12-05T18:59:29.550Z,52.17
2022-12-05T19:01:59.952Z,47.30
2022-12-05T19:04:41.578Z,36.20
2022-12-05T19:07:15.789Z,41.30
2022-12-05T19:09:50.683Z,36.00
2022-12-05T19:12:18.770Z,42.27
2022-12-05T19:14:54.549Z,38.20
2022-12-05T19:17:24.755Z,46.67
2022-12-05T19:20:00.576Z,46.37
2022-12-05T19:22:30.323Z,51.87
2022-12-05T19:25:04.576Z,49.20
2022-12-05T19:27:32.697Z,49.93
2022-12-05T19:30:10.041Z,49.83
2022-12-05T19:32:40.779Z,51.30
2022-12-05T19:35:17.611Z,53.70
2022-12-05T19:37:45.648Z,65.17
2022-12-05T19:40:20.595Z,56.60
2022-12-05T19:42:48.735Z,64.40
2022-12-05T19:45:23.611Z,64.20
2022-12-05T19:47:53.133Z,71.60
2022-12-05T19:50:27.602Z,66.00
2022-12-05T19:52:55.694Z,68.73
2022-12-05T19:55:30.626Z,49.77
2022-12-05T19:57:58.744Z,41.20
2022-12-05T20:00:33.589Z,66.20
2022-12-05T20:03:23.731Z,79.10
2022-12-05T20:06:05.606Z,71.37
2022-12-05T20:08:34.357Z,49.97
2022-12-05T20:11:12.633Z,38.10
2022-12-05T20:13:49.020Z,38.03
2022-12-05T20:16:25.645Z,43.63
2022-12-05T20:18:57.987Z,72.30
2022-12-05T20:21:34.673Z,66.47
2022-12-05T20:24:04.335Z,66.37
2022-12-05T20:26:40.625Z,73.30
2022-12-05T20:29:09.371Z,91.67
2022-12-05T20:31:45.629Z,85.23
2022-12-05T20:34:15.825Z,76.30
2022-12-05T20:36:50.657Z,83.97
2022-12-05T20:39:19.239Z,57.63
2022-12-05T20:41:53.755Z,52.70
2022-12-05T20:44:21.978Z,82.73
2022-12-05T20:46:57.663Z,55.90
2022-12-05T20:49:27.136Z,128.77
2022-12-05T20:52:01.730Z,134.23
2022-12-05T20:54:29.790Z,73.07
2022-12-05T20:57:04.683Z,68.90
2022-12-05T20:59:32.748Z,80.93
2022-12-05T21:02:07.753Z,46.47
2022-12-05T21:04:57.643Z,106.63
2022-12-05T21:07:32.724Z,94.67
2022-12-05T21:10:06.431Z,68.87
2022-12-05T21:12:42.676Z,98.47
2022-12-05T21:15:11.738Z,55.23
2022-12-05T21:17:46.671Z,88.97
2022-12-05T21:20:18.712Z,91.83
2022-12-05T21:22:53.671Z,100.67
2022-12-05T21:25:21.938Z,64.23
2022-12-05T21:27:56.694Z,88.87
2022-12-05T21:30:24.764Z,83.47
2022-12-05T21:32:59.689Z,81.40
2022-12-05T21:35:29.105Z,60.40
2022-12-05T21:38:03.718Z,203.27
2022-12-05T21:40:31.846Z,104.23
2022-12-05T21:43:06.725Z,69.27
2022-12-05T21:45:38.789Z,88.87
2022-12-05T21:48:16.736Z,60.23
2022-12-05T21:50:52.713Z,68.83
2022-12-05T21:53:21.522Z,172.07
2022-12-05T21:55:56.735Z,58.33
2022-12-05T21:58:24.804Z,54.17
2022-12-05T22:01:00.748Z,126.50
2022-12-05T22:03:48.704Z,77.00
2022-12-05T22:06:24.705Z,78.10
2022-12-05T22:08:52.781Z,114.30
2022-12-05T22:11:29.736Z,39.90
2022-12-05T22:13:57.827Z,46.27
2022-12-05T22:16:33.697Z,72.60
2022-12-05T22:19:02.103Z,111.87
2022-12-05T22:21:40.701Z,70.40
2022-12-05T22:24:08.955Z,47.83
2022-12-05T22:26:43.713Z,54.20
2022-12-05T22:29:11.800Z,70.97
2022-12-05T22:31:46.827Z,48.67
2022-12-05T22:34:15.055Z,44.90
2022-12-05T22:36:50.728Z,40.63
2022-12-05T22:39:18.839Z,57.13
2022-12-05T22:41:53.732Z,41.07
2022-12-05T22:44:21.908Z,54.90
2022-12-05T22:46:56.825Z,31.37
2022-12-05T22:49:25.293Z,27.87
2022-12-05T22:52:01.788Z,44.63
2022-12-05T22:54:30.442Z,41.20
2022-12-05T22:57:04.747Z,35.17
2022-12-05T22:59:32.810Z,36.23
2022-12-05T23:02:07.739Z,30.93
2022-12-05T23:04:55.780Z,33.20
2022-12-05T23:07:31.835Z,50.50
2022-12-05T23:10:00.540Z,70.07
2022-12-05T23:12:35.777Z,153.20
2022-12-05T23:15:04.127Z,162.27
2022-12-05T23:17:38.773Z,77.10
2022-12-05T23:20:08.356Z,38.27
2022-12-05T23:22:44.754Z,58.77
2022-12-05T23:25:13.107Z,31.23
2022-12-05T23:27:47.779Z,41.33
2022-12-05T23:30:16.607Z,37.90
2022-12-05T23:32:51.783Z,33.93
2022-12-05T23:35:20.131Z,36.90
2022-12-05T23:37:56.793Z,28.67
2022-12-05T23:40:25.122Z,32.53
2022-12-05T23:42:59.966Z,32.43
2022-12-05T23:45:28.869Z,31.23
2022-12-05T23:48:04.764Z,39.07
2022-12-05T23:50:33.389Z,29.90
2022-12-05T23:53:09.922Z,36.50
2022-12-05T23:55:38.287Z,36.13
2022-12-05T23:58:13.812Z,34.00
